createdAt,value
2023-04-23T00:00:12.129Z,4.50
2023-04-23T00:02:39.665Z,6.05
2023-04-23T00:05:07.038Z,7.35
2023-04-23T00:07:34.302Z,4.82
2023-04-23T00:10:04.032Z,5.78
2023-04-23T00:12:30.749Z,6.15
2023-04-23T00:14:57.406Z,4.80
2023-04-23T00:17:23.960Z,5.45
2023-04-23T00:19:51.620Z,5.80
2023-04-23T00:22:20.064Z,5.22
2023-04-23T00:24:46.722Z,6.30
2023-04-23T00:27:13.389Z,5.55
2023-04-23T00:29:40.608Z,4.78
2023-04-23T00:32:07.816Z,5.85
2023-04-23T00:34:34.312Z,5.97
2023-04-23T00:37:00.727Z,5.10
2023-04-23T00:39:27.138Z,5.38
2023-04-23T00:41:53.553Z,7.10
2023-04-23T00:44:20.030Z,6.75
2023-04-23T00:46:46.850Z,5.90
2023-04-23T00:49:16.105Z,6.22
2023-04-23T00:51:42.559Z,6.03
2023-04-23T00:54:09.129Z,7.38
2023-04-23T00:56:35.614Z,5.55
2023-04-23T00:59:03.312Z,5.85
2023-04-23T01:01:30.226Z,12.52
2023-04-23T01:03:57.643Z,5.53
2023-04-23T01:06:25.126Z,5.97
2023-04-23T01:08:51.614Z,6.35
2023-04-23T01:11:18.108Z,6.15
2023-04-23T01:13:44.569Z,6.20
2023-04-23T01:16:11.641Z,6.10
2023-04-23T01:18:38.193Z,6.93
2023-04-23T01:21:05.450Z,6.70
2023-04-23T01:23:32.089Z,6.75
2023-04-23T01:25:58.997Z,6.68
2023-04-23T01:28:26.069Z,6.38
2023-04-23T01:30:53.311Z,6.95
2023-04-23T01:33:21.865Z,5.75
2023-04-23T01:35:49.614Z,6.18
2023-04-23T01:38:19.851Z,6.03
2023-04-23T01:40:46.591Z,6.00
2023-04-23T01:43:13.982Z,6.20
2023-04-23T01:45:41.361Z,6.88
2023-04-23T01:48:07.885Z,6.53
2023-04-23T01:50:34.623Z,5.50
2023-04-23T01:53:04.055Z,6.40
2023-04-23T01:55:31.437Z,8.52
2023-04-23T01:57:58.076Z,7.10
2023-04-23T02:00:36.923Z,5.97
2023-04-23T02:03:03.683Z,6.38
2023-04-23T02:05:32.425Z,6.93
2023-04-23T02:07:58.911Z,6.43
2023-04-23T02:10:25.689Z,6.53
2023-04-23T02:12:52.373Z,7.22
2023-04-23T02:15:20.001Z,6.60
2023-04-23T02:17:46.562Z,6.15
2023-04-23T02:20:13.141Z,5.95
2023-04-23T02:22:41.827Z,7.85
2023-04-23T02:25:09.959Z,6.13
2023-04-23T02:27:36.850Z,7.28
2023-04-23T02:30:04.758Z,7.30
2023-04-23T02:32:31.302Z,6.50
2023-04-23T02:34:59.505Z,6.75
2023-04-23T02:37:26.742Z,6.38
2023-04-23T02:39:53.178Z,5.50
2023-04-23T02:42:19.629Z,6.07
2023-04-23T02:44:46.054Z,6.13
2023-04-23T02:47:12.689Z,6.30
2023-04-23T02:49:39.126Z,6.00
2023-04-23T02:52:05.756Z,5.97
2023-04-23T02:54:36.976Z,5.70
2023-04-23T02:57:04.394Z,5.72
2023-04-23T02:59:30.820Z,5.45
2023-04-23T03:01:57.462Z,6.28
2023-04-23T03:04:24.077Z,6.00
2023-04-23T03:06:50.884Z,7.13
2023-04-23T03:09:17.392Z,5.65
2023-04-23T03:11:43.958Z,6.40
2023-04-23T03:14:10.536Z,5.57
2023-04-23T03:16:37.018Z,5.65
2023-04-23T03:19:03.633Z,6.03
2023-04-23T03:21:30.226Z,6.05
2023-04-23T03:23:56.815Z,6.07
2023-04-23T03:26:23.355Z,6.13
2023-04-23T03:28:49.805Z,5.85
2023-04-23T03:31:16.408Z,6.00
2023-04-23T03:33:42.901Z,5.18
2023-04-23T03:36:09.312Z,5.70
2023-04-23T03:38:35.970Z,5.57
2023-04-23T03:41:02.301Z,7.65
2023-04-23T03:43:28.778Z,6.15
2023-04-23T03:45:55.295Z,6.72
2023-04-23T03:48:21.896Z,5.75
2023-04-23T03:50:48.693Z,5.82
2023-04-23T03:53:15.169Z,5.07
2023-04-23T03:55:41.629Z,5.03
2023-04-23T03:58:09.112Z,6.28
2023-04-23T04:00:35.916Z,6.10
2023-04-23T04:03:02.650Z,5.18
2023-04-23T04:05:29.172Z,6.28
2023-04-23T04:07:55.746Z,5.35
2023-04-23T04:10:22.362Z,5.35
2023-04-23T04:12:48.743Z,5.55
2023-04-23T04:15:16.585Z,5.55
2023-04-23T04:17:45.758Z,4.45
2023-04-23T04:22:39.262Z,4.63
2023-04-23T04:25:08.175Z,4.40
2023-04-23T04:27:37.698Z,4.25
2023-04-23T04:30:07.570Z,5.20
2023-04-23T04:32:34.369Z,4.32
2023-04-23T04:35:03.923Z,3.83
2023-04-23T04:37:30.438Z,4.15
2023-04-23T04:40:00.435Z,4.18
2023-04-23T04:42:30.084Z,4.15
2023-04-23T04:44:59.487Z,4.03
2023-04-23T04:47:30.958Z,4.45
2023-04-23T04:50:00.505Z,3.90
2023-04-23T04:52:27.737Z,4.22
2023-04-23T04:54:54.238Z,3.90
2023-04-23T04:57:22.867Z,3.55
2023-04-23T04:59:50.565Z,3.80
2023-04-23T05:02:19.449Z,5.75
2023-04-23T05:04:49.014Z,3.47
2023-04-23T05:07:15.444Z,4.55
2023-04-23T05:09:43.701Z,3.72
2023-04-23T05:12:11.412Z,4.25
2023-04-23T05:14:44.275Z,4.78
2023-04-23T05:17:13.542Z,4.15
2023-04-23T05:19:43.875Z,4.72
2023-04-23T05:22:10.397Z,3.83
2023-04-23T05:24:39.250Z,4.53
2023-04-23T05:27:08.117Z,4.00
2023-04-23T05:29:37.816Z,4.30
2023-04-23T05:32:04.350Z,4.75
2023-04-23T05:34:33.384Z,4.72
2023-04-23T05:36:59.972Z,5.35
2023-04-23T05:39:26.461Z,4.43
2023-04-23T05:41:53.508Z,4.20
2023-04-23T05:44:19.900Z,4.45
2023-04-23T05:46:46.582Z,4.10
2023-04-23T05:49:14.308Z,4.80
2023-04-23T05:51:40.972Z,5.20
2023-04-23T05:54:07.362Z,4.68
2023-04-23T05:56:35.536Z,4.97
2023-04-23T05:59:04.877Z,5.32
2023-04-23T06:01:34.540Z,5.10
2023-04-23T06:04:01.123Z,5.22
2023-04-23T06:06:28.134Z,4.68
2023-04-23T06:08:58.030Z,6.10
2023-04-23T06:11:29.410Z,4.68
2023-04-23T06:13:56.632Z,5.20
2023-04-23T06:16:23.963Z,5.72
2023-04-23T06:18:56.138Z,6.50
2023-04-23T06:21:23.489Z,6.35
2023-04-23T06:23:50.774Z,5.80
2023-04-23T06:26:17.507Z,6.30
2023-04-23T06:28:45.825Z,6.50
2023-04-23T06:31:13.264Z,6.88
2023-04-23T06:33:40.725Z,7.70
2023-04-23T06:36:12.605Z,7.25
2023-04-23T06:38:38.975Z,6.10
2023-04-23T06:41:05.630Z,6.80
2023-04-23T06:43:34.673Z,7.05
2023-04-23T06:46:04.018Z,8.10
2023-04-23T06:48:37.290Z,8.52
2023-04-23T06:51:08.443Z,7.15
2023-04-23T06:53:34.935Z,6.78
2023-04-23T06:56:03.713Z,6.43
2023-04-23T06:58:34.300Z,6.25
2023-04-23T07:01:01.587Z,6.95
2023-04-23T07:03:28.477Z,7.57
2023-04-23T07:05:58.247Z,6.72
2023-04-23T07:11:10.836Z,6.45
2023-04-23T07:13:41.135Z,7.15
2023-04-23T07:16:08.637Z,6.93
2023-04-23T07:18:38.258Z,5.85
2023-04-23T07:21:04.649Z,6.07
2023-04-23T07:23:31.055Z,5.28
2023-04-23T07:25:57.493Z,6.22
2023-04-23T07:28:29.491Z,6.70
2023-04-23T07:30:59.168Z,5.47
2023-04-23T07:33:31.030Z,5.85
2023-04-23T07:36:02.491Z,5.53
2023-04-23T07:38:31.675Z,6.25
2023-04-23T07:41:05.904Z,5.65
2023-04-23T07:43:34.934Z,5.35
2023-04-23T07:48:29.000Z,6.03
2023-04-23T07:50:58.503Z,4.72
2023-04-23T07:53:25.074Z,3.80
2023-04-23T07:55:55.081Z,5.30
2023-04-23T07:58:28.320Z,5.95
2023-04-23T08:01:08.760Z,5.45
2023-04-23T08:03:44.150Z,4.57
2023-04-23T08:06:12.427Z,4.32
2023-04-23T08:08:41.623Z,5.32
2023-04-23T08:11:09.321Z,5.05
2023-04-23T08:13:35.944Z,6.15
2023-04-23T08:16:02.465Z,4.82
2023-04-23T08:18:29.056Z,5.65
2023-04-23T08:20:58.261Z,5.20
2023-04-23T08:23:27.311Z,5.10
2023-04-23T08:28:22.356Z,5.90
2023-04-23T08:30:48.767Z,5.43
2023-04-23T08:33:15.271Z,9.90
2023-04-23T08:35:46.513Z,4.53
2023-04-23T08:38:12.937Z,5.15
2023-04-23T08:40:57.607Z,5.90
2023-04-23T08:43:33.800Z,5.22
2023-04-23T08:46:06.610Z,4.93
2023-04-23T08:48:35.795Z,5.07
2023-04-23T08:51:04.039Z,5.53
2023-04-23T08:53:32.660Z,4.65
2023-04-23T08:56:00.508Z,4.60
2023-04-23T08:58:30.062Z,5.95
2023-04-23T09:00:58.071Z,4.78
2023-04-23T09:03:25.560Z,4.40
2023-04-23T09:05:56.443Z,4.45
2023-04-23T09:08:24.501Z,4.45
2023-04-23T09:10:58.290Z,4.20
2023-04-23T09:13:30.138Z,4.72
2023-04-23T09:16:06.570Z,4.80
2023-04-23T09:18:35.897Z,4.10
2023-04-23T09:21:04.210Z,4.93
2023-04-23T09:23:34.446Z,4.50
2023-04-23T09:26:05.680Z,3.47
2023-04-23T09:28:36.409Z,5.13
2023-04-23T09:31:08.424Z,5.05
2023-04-23T09:33:37.384Z,3.92
2023-04-23T09:36:11.816Z,6.18
2023-04-23T09:38:41.059Z,4.10
2023-04-23T09:41:27.844Z,4.38
2023-04-23T09:43:55.137Z,4.82
2023-04-23T09:46:40.511Z,4.38
2023-04-23T09:49:07.957Z,4.40
2023-04-23T09:51:40.385Z,4.30
2023-04-23T09:54:16.859Z,4.35
2023-04-23T09:56:43.579Z,5.00
2023-04-23T09:59:32.488Z,4.43
2023-04-23T10:02:08.840Z,4.28
2023-04-23T10:04:35.886Z,4.43
2023-04-23T10:07:18.078Z,3.97
2023-04-23T10:09:48.212Z,4.75
2023-04-23T10:14:50.889Z,4.82
2023-04-23T10:17:19.829Z,5.28
2023-04-23T10:22:20.180Z,4.55
2023-04-23T10:24:53.013Z,4.00
2023-04-23T10:29:54.973Z,4.40
2023-04-23T10:32:21.494Z,4.38
2023-04-23T10:34:51.930Z,4.50
2023-04-23T10:37:19.477Z,3.78
2023-04-23T10:39:50.701Z,4.03
2023-04-23T10:42:17.951Z,4.60
2023-04-23T10:44:57.978Z,3.47
2023-04-23T10:47:30.778Z,5.78
2023-04-23T10:49:57.698Z,6.00
2023-04-23T10:52:25.925Z,24.70
2023-04-23T10:55:00.011Z,14.57
2023-04-23T10:57:26.695Z,21.00
2023-04-23T10:59:56.342Z,4.45
2023-04-23T11:02:25.596Z,5.18
2023-04-23T11:05:01.405Z,3.08
2023-04-23T11:07:32.986Z,8.00
2023-04-23T11:10:01.165Z,4.35
2023-04-23T11:12:30.162Z,3.65
2023-04-23T11:14:59.507Z,3.05
2023-04-23T11:17:31.862Z,7.80
2023-04-23T11:20:08.125Z,3.70
2023-04-23T11:22:36.665Z,4.15
2023-04-23T11:25:04.414Z,5.22
2023-04-23T11:27:32.102Z,4.68
2023-04-23T11:30:00.764Z,6.45
2023-04-23T11:32:28.193Z,3.25
2023-04-23T11:34:55.216Z,4.10
2023-04-23T11:37:21.620Z,3.00
2023-04-23T11:39:49.173Z,2.65
2023-04-23T11:42:17.213Z,6.93
2023-04-23T11:44:47.749Z,3.22
2023-04-23T11:47:16.465Z,3.28
2023-04-23T11:49:45.971Z,2.47
2023-04-23T11:52:14.689Z,2.75
2023-04-23T11:54:42.090Z,2.83
2023-04-23T11:57:08.924Z,3.70
2023-04-23T11:59:35.376Z,2.92
2023-04-23T12:02:01.871Z,6.05
2023-04-23T12:04:30.046Z,2.85
2023-04-23T12:07:19.310Z,3.60
2023-04-23T12:09:52.057Z,2.65
2023-04-23T12:12:18.471Z,2.65
2023-04-23T12:14:45.374Z,2.47
2023-04-23T12:17:22.541Z,3.33
2023-04-23T12:19:50.708Z,2.22
2023-04-23T12:22:17.232Z,2.50
2023-04-23T12:24:48.884Z,5.05
2023-04-23T12:27:16.683Z,3.03
2023-04-23T12:29:43.604Z,4.00
2023-04-23T12:32:14.261Z,3.03
2023-04-23T12:34:53.622Z,2.67
2023-04-23T12:37:25.666Z,5.55
2023-04-23T12:39:56.173Z,7.90
2023-04-23T12:42:22.754Z,22.83
2023-04-23T12:44:51.445Z,16.23
2023-04-23T12:47:21.366Z,2.03
2023-04-23T12:49:53.762Z,3.55
2023-04-23T12:52:20.817Z,1.77
2023-04-23T12:54:49.695Z,2.78
2023-04-23T12:57:16.270Z,3.35
2023-04-23T12:59:45.103Z,1.70
2023-04-23T13:02:12.057Z,2.70
2023-04-23T13:04:38.582Z,1.85
2023-04-23T13:07:05.106Z,2.40
2023-04-23T13:09:31.572Z,1.80
2023-04-23T13:11:59.792Z,3.70
2023-04-23T13:14:27.190Z,3.78
2023-04-23T13:16:53.885Z,2.42
2023-04-23T13:19:20.584Z,2.47
2023-04-23T13:21:46.961Z,7.70
2023-04-23T13:24:13.393Z,1.88
2023-04-23T13:26:41.665Z,1.83
2023-04-23T13:29:08.027Z,1.75
2023-04-23T13:31:34.572Z,1.67
2023-04-23T13:34:02.799Z,1.75
2023-04-23T13:36:31.657Z,2.00
2023-04-23T13:38:58.143Z,1.50
2023-04-23T13:41:24.603Z,1.42
2023-04-23T13:43:51.181Z,1.40
2023-04-23T13:46:17.612Z,2.17
2023-04-23T13:48:44.155Z,1.50
2023-04-23T13:51:27.149Z,1.35
2023-04-23T13:53:59.183Z,1.40
2023-04-23T13:56:26.714Z,1.63
2023-04-23T13:58:58.082Z,1.92
2023-04-23T14:01:33.836Z,1.63
2023-04-23T14:04:00.360Z,1.70
2023-04-23T14:06:27.449Z,3.15
2023-04-23T14:08:53.802Z,1.95
2023-04-23T14:11:22.033Z,1.70
2023-04-23T14:13:48.872Z,1.45
2023-04-23T14:16:15.370Z,2.05
2023-04-23T14:18:41.735Z,1.75
2023-04-23T14:21:09.489Z,3.70
2023-04-23T14:23:48.104Z,3.03
2023-04-23T14:26:34.177Z,2.17
2023-04-23T14:29:20.576Z,1.75
2023-04-23T14:31:46.910Z,1.73
2023-04-23T14:34:13.306Z,2.67
2023-04-23T14:36:39.978Z,2.03
2023-04-23T14:39:06.356Z,2.47
2023-04-23T14:41:33.121Z,1.60
2023-04-23T14:44:01.163Z,2.38
2023-04-23T14:46:28.468Z,2.65
2023-04-23T14:48:55.497Z,1.83
2023-04-23T14:51:21.909Z,2.10
2023-04-23T14:53:48.349Z,4.15
2023-04-23T14:56:14.812Z,1.58
2023-04-23T14:58:41.864Z,1.75
2023-04-23T15:01:08.612Z,2.40
2023-04-23T15:03:36.402Z,2.13
2023-04-23T15:06:04.265Z,1.85
2023-04-23T15:08:30.674Z,3.50
2023-04-23T15:10:59.295Z,1.90
2023-04-23T15:13:42.814Z,1.90
2023-04-23T15:16:26.315Z,1.70
2023-04-23T15:19:03.606Z,1.50
2023-04-23T15:21:30.344Z,1.48
2023-04-23T15:23:56.919Z,1.92
2023-04-23T15:26:23.551Z,2.40
2023-04-23T15:28:55.536Z,1.83
2023-04-23T15:31:21.949Z,1.73
2023-04-23T15:33:48.334Z,1.80
2023-04-23T15:36:15.466Z,2.10
2023-04-23T15:38:43.891Z,2.20
2023-04-23T15:41:16.482Z,2.22
2023-04-23T15:43:43.078Z,1.90
2023-04-23T15:46:09.670Z,2.25
2023-04-23T15:48:36.102Z,2.42
2023-04-23T15:51:06.010Z,1.77
2023-04-23T15:53:34.669Z,2.38
2023-04-23T15:56:01.507Z,2.83
2023-04-23T15:58:30.850Z,2.05
2023-04-23T16:00:57.337Z,3.13
2023-04-23T16:03:25.119Z,2.05
2023-04-23T16:05:52.297Z,2.22
2023-04-23T16:08:23.358Z,2.60
2023-04-23T16:10:49.859Z,2.33
2023-04-23T16:13:16.343Z,2.25
2023-04-23T16:15:42.793Z,2.40
2023-04-23T16:18:09.274Z,7.60
2023-04-23T16:20:36.124Z,3.05
2023-04-23T16:23:02.661Z,3.45
2023-04-23T16:25:29.050Z,2.40
2023-04-23T16:27:56.341Z,3.17
2023-04-23T16:30:23.939Z,2.58
2023-04-23T16:32:50.783Z,2.75
2023-04-23T16:35:19.923Z,2.67
2023-04-23T16:37:46.662Z,3.67
2023-04-23T16:40:15.147Z,2.65
2023-04-23T16:42:42.773Z,4.68
2023-04-23T16:45:12.131Z,3.03
2023-04-23T16:47:42.135Z,4.95
2023-04-23T16:50:09.228Z,3.97
2023-04-23T16:52:35.922Z,3.13
2023-04-23T16:55:04.922Z,3.35
2023-04-23T16:57:40.736Z,4.40
2023-04-23T17:00:08.170Z,3.78
2023-04-23T17:02:38.701Z,10.48
2023-04-23T17:05:06.305Z,4.68
2023-04-23T17:07:35.942Z,3.38
2023-04-23T17:10:02.428Z,4.93
2023-04-23T17:12:28.991Z,4.65
2023-04-23T17:14:57.874Z,2.83
2023-04-23T17:17:24.681Z,3.95
2023-04-23T17:19:51.077Z,2.83
2023-04-23T17:22:17.714Z,2.63
2023-04-23T17:24:44.453Z,4.03
2023-04-23T17:27:11.642Z,2.75
2023-04-23T17:29:38.228Z,4.65
2023-04-23T17:32:07.963Z,2.13
2023-04-23T17:34:34.878Z,3.20
2023-04-23T17:37:01.376Z,2.17
2023-04-23T17:39:27.864Z,1.85
2023-04-23T17:41:56.082Z,2.40
2023-04-23T17:44:22.933Z,2.05
2023-04-23T17:46:49.607Z,2.13
2023-04-23T17:49:16.053Z,3.42
2023-04-23T17:51:42.507Z,1.90
2023-04-23T17:54:08.850Z,1.80
2023-04-23T17:56:35.508Z,2.35
2023-04-23T17:59:02.275Z,2.15
2023-04-23T18:01:28.816Z,2.00
2023-04-23T18:03:55.723Z,2.42
2023-04-23T18:06:22.818Z,2.80
2023-04-23T18:08:49.337Z,2.50
2023-04-23T18:11:15.770Z,2.47
2023-04-23T18:13:42.711Z,3.25
2023-04-23T18:16:10.314Z,2.40
2023-04-23T18:18:39.219Z,3.05
2023-04-23T18:21:05.770Z,2.58
2023-04-23T18:23:33.365Z,2.35
2023-04-23T18:26:01.883Z,3.85
2023-04-23T18:28:28.835Z,3.85
2023-04-23T18:31:01.930Z,2.58
2023-04-23T18:33:38.004Z,4.28
2023-04-23T18:36:09.205Z,5.75
2023-04-23T18:38:38.736Z,2.72
2023-04-23T18:41:05.259Z,2.78
2023-04-23T18:43:31.860Z,2.70
2023-04-23T18:45:58.394Z,3.25
2023-04-23T18:48:34.074Z,3.40
2023-04-23T18:51:13.080Z,3.20
2023-04-23T18:53:47.065Z,2.75
2023-04-23T18:56:13.563Z,2.50
2023-04-23T18:58:39.918Z,3.08
2023-04-23T19:01:06.340Z,3.42
2023-04-23T19:03:32.950Z,3.38
2023-04-23T19:05:59.517Z,2.55
2023-04-23T19:08:28.723Z,3.42
2023-04-23T19:10:56.335Z,2.70
2023-04-23T19:13:22.883Z,3.38
2023-04-23T19:15:50.333Z,2.63
2023-04-23T19:18:17.902Z,2.40
2023-04-23T19:20:44.445Z,2.97
2023-04-23T19:23:11.141Z,2.78
2023-04-23T19:25:37.592Z,2.95
2023-04-23T19:28:04.310Z,2.80
2023-04-23T19:30:30.787Z,3.35
2023-04-23T19:32:57.175Z,3.10
2023-04-23T19:35:23.599Z,2.55
2023-04-23T19:37:50.855Z,2.00
2023-04-23T19:40:17.251Z,2.55
2023-04-23T19:42:43.594Z,2.42
2023-04-23T19:45:10.441Z,3.30
2023-04-23T19:47:39.003Z,2.55
2023-04-23T19:50:09.694Z,2.08
2023-04-23T19:52:36.783Z,2.05
2023-04-23T19:55:03.420Z,1.98
2023-04-23T19:57:29.803Z,3.83
2023-04-23T19:59:56.324Z,2.47
2023-04-23T20:02:23.617Z,2.33
2023-04-23T20:04:49.976Z,2.05
2023-04-23T20:07:16.946Z,2.30
2023-04-23T20:09:43.605Z,1.88
2023-04-23T20:12:10.342Z,2.25
2023-04-23T20:14:36.741Z,1.88
2023-04-23T20:17:03.219Z,1.58
2023-04-23T20:19:31.140Z,1.50
2023-04-23T20:21:57.488Z,1.73
2023-04-23T20:24:23.947Z,2.05
2023-04-23T20:26:50.880Z,2.35
2023-04-23T20:29:17.237Z,1.83
2023-04-23T20:31:48.445Z,1.60
2023-04-23T20:34:16.274Z,1.88
2023-04-23T20:36:42.949Z,1.60
2023-04-23T20:39:09.409Z,1.95
2023-04-23T20:41:36.637Z,1.63
2023-04-23T20:44:04.818Z,2.25
2023-04-23T20:46:32.253Z,1.83
2023-04-23T20:49:03.223Z,1.55
2023-04-23T20:51:30.063Z,1.50
2023-04-23T20:53:59.358Z,1.77
2023-04-23T20:56:25.980Z,2.15
2023-04-23T20:58:52.392Z,2.92
2023-04-23T21:01:18.807Z,1.63
2023-04-23T21:03:45.320Z,1.98
2023-04-23T21:06:11.831Z,1.63
2023-04-23T21:08:41.138Z,2.15
2023-04-23T21:11:11.243Z,3.05
2023-04-23T21:13:38.190Z,1.48
2023-04-23T21:16:04.731Z,1.30
2023-04-23T21:18:31.292Z,1.25
2023-04-23T21:20:57.847Z,2.13
2023-04-23T21:23:24.326Z,1.67
2023-04-23T21:25:50.894Z,1.45
2023-04-23T21:28:17.367Z,1.35
2023-04-23T21:30:56.708Z,1.63
2023-04-23T21:33:25.162Z,1.98
2023-04-23T21:35:53.467Z,1.55
2023-04-23T21:38:21.234Z,2.30
2023-04-23T21:40:47.824Z,1.73
2023-04-23T21:43:14.224Z,2.92
2023-04-23T21:45:40.674Z,1.80
2023-04-23T21:48:07.187Z,1.65
2023-04-23T21:50:34.208Z,3.83
2023-04-23T21:53:03.767Z,1.42
2023-04-23T21:55:31.557Z,1.83
2023-04-23T21:58:09.719Z,2.05
2023-04-23T22:00:44.050Z,2.55
2023-04-23T22:03:11.385Z,1.50
2023-04-23T22:05:38.263Z,2.55
2023-04-23T22:08:06.823Z,3.97
2023-04-23T22:10:33.830Z,1.85
2023-04-23T22:13:00.197Z,3.03
2023-04-23T22:15:28.468Z,3.10
2023-04-23T22:17:55.460Z,2.22
2023-04-23T22:20:23.699Z,1.55
2023-04-23T22:22:50.130Z,1.58
2023-04-23T22:25:17.316Z,2.53
2023-04-23T22:27:43.735Z,1.63
2023-04-23T22:30:11.488Z,1.63
2023-04-23T22:32:39.097Z,2.33
2023-04-23T22:35:07.245Z,1.60
2023-04-23T22:37:34.385Z,2.38
2023-04-23T22:40:01.471Z,1.75
2023-04-23T22:42:27.878Z,2.10
2023-04-23T22:44:54.290Z,3.08
2023-04-23T22:47:20.830Z,3.25
2023-04-23T22:49:47.225Z,2.58
2023-04-23T22:52:15.014Z,1.50
2023-04-23T22:54:43.105Z,2.40
2023-04-23T22:57:10.350Z,2.60
2023-04-23T22:59:38.514Z,4.10
2023-04-23T23:02:05.640Z,2.17
2023-04-23T23:04:32.474Z,1.70
2023-04-23T23:06:58.897Z,2.42
2023-04-23T23:09:25.346Z,2.05
2023-04-23T23:11:51.723Z,1.95
2023-04-23T23:14:21.359Z,1.92
2023-04-23T23:16:47.772Z,2.45
2023-04-23T23:19:14.139Z,1.85
2023-04-23T23:21:41.300Z,1.48
2023-04-23T23:24:10.231Z,1.80
2023-04-23T23:26:36.664Z,3.92
2023-04-23T23:29:03.182Z,1.80
2023-04-23T23:31:29.640Z,1.63
2023-04-23T23:33:56.101Z,2.85
2023-04-23T23:36:22.572Z,1.63
2023-04-23T23:38:50.683Z,4.03
2023-04-23T23:41:17.014Z,2.20
2023-04-23T23:43:43.404Z,2.70
2023-04-23T23:46:10.527Z,2.20
2023-04-23T23:48:37.041Z,2.20
2023-04-23T23:51:03.833Z,2.95
2023-04-23T23:53:30.297Z,2.05
2023-04-23T23:55:56.635Z,2.08
2023-04-23T23:58:23.039Z,2.28
